Catlettsburg, KY

1:51 AM EST on November 24, 2014 (GMT -0500)
Ohio University | Change Station
CLOSE
Current Station
Airport
Location: Athens,
Elevation: 764 ft
Nearby Weather Stations
Active Advisory: Wind Advisory Active Notice: Public Information Statement

Elev 764 ft 39.21 °N, 82.23 °W | Updated 16 minutes ago

Overcast
Overcast
58 °F
Feels Like 58 °F
N
13
Wind Variable Wind from South
Gusts 20 mph

Today
High -- | Low -- °F
--% Chance of Precip.
Yesterday
High -- | Low -- °F
Precip. -- in
7:21 AM 5:12 PM
Waxing Crescent, 4% visible
Pressure 29.37 in
Visibility 10.0 miles
Clouds Scattered Clouds 2600 ft
Mostly Cloudy 3200 ft
Overcast 4000 ft
Dew Point 54 °F
Humidity 84%
Rainfall 0.01 in
Snow Depth Not available.
UV 0 out of 12
Pollen .10 out of 12
Air Quality Not available.
Flu Activity Not available.
METAR KUNI 240635Z AUTO 18011G17KT 10SM -RA SCT026 BKN032 OVC040 15/12 A2937 RMK AO2 T01470121

More Conditions Fewer Conditions

Pressure 29.37 in
Visibility 10.0 miles
Clouds Scattered Clouds 2600 ft
Mostly Cloudy 3200 ft
Overcast 4000 ft
Dew Point 54 °F
Humidity 84%
Rainfall 0.01 in
Snow Depth Not available.
UV 0 out of 12
Pollen .10 out of 12
Air Quality Not available.
Flu Activity Not available.
METAR KUNI 240635Z AUTO 18011G17KT 10SM -RA SCT026 BKN032 OVC040 15/12 A2937 RMK AO2 T01470121

More Conditions Fewer Conditions

10-Day Weather Forecast

Almanac

Astronomy

Nov. 24, 2014 Rise Set
Actual Time
Civil Twilight
Nautical Twilight
Astronomical Twilight
Moon
Length of Visible Light
Length of Day
Tomorrow will be .
, % of the Moon is Illuminated

Today's Extremes

State Highs State Lows

Community

WunderPhotos

Upload Photos

1,773,294 photos uploaded!

WunderBlogs® & News

Nearby

Air Quality

  Air Quality AQ Index Pollutant
Not available.

Snow Depth

Station Depth Elevation

Earthquake Activity

City Distance Mag. Time & Date
Minimum magnitude displayed is 2.5.

Coastal Water Temperatures

Place Temperature

Nearby Weather Stations